Time;durP1;ratioP1;P1;durP2;ratioP2;P2;SDS_P1;SDS_P2;PMS_P1;PMS_P2;Temp;Humidity;BMP_temperature;BMP_pressure;BME280_temperature;BME280_humidity;BME280_pressure;Samples;Min_cycle;Max_cycle;Signal;HPM_P1;HPM_P2
2023/03/05 00:01:08;;;;;;;;;;;;;;;11.63;42.40;100613.31;4906099;28;98045;-68
2023/03/05 00:03:34;;;;;;;;;;;;;;;11.62;42.40;100614.41;4892338;28;98157;-69
2023/03/05 00:06:01;;;;;;;;;;;;;;;11.63;42.55;100610.63;4903983;28;97981;-68
2023/03/05 00:08:28;;;;;;;;;;;;;;;11.62;42.60;100609.00;4921546;28;97970;-70
2023/03/05 00:10:58;;;;;;;;;;;;;;;11.61;42.23;100594.72;4906991;28;99555;-68
2023/03/05 00:13:24;;;;;;;;;;;;;;;11.60;42.27;100606.59;4935343;28;99481;-67
2023/03/05 00:15:51;;;;;;;;;;;;;;;11.60;42.43;100597.69;4922831;28;98228;-69
2023/03/05 00:18:17;;;;;;;;;;;;;;;11.59;42.46;100594.16;4925997;28;98342;-67
2023/03/05 00:20:44;;;;;;;;;;;;;;;11.58;42.62;100597.13;4910217;28;98532;-67
2023/03/05 00:23:10;;;;;;;;;;;;;;;11.57;42.21;100596.34;4907294;28;98544;-67
2023/03/05 00:25:37;;;;;;;;;;;;;;;11.57;42.54;100590.94;4920580;28;98179;-69
2023/03/05 00:28:03;;;;;;;;;;;;;;;11.54;42.67;100589.56;4926276;28;98133;-69
2023/03/05 00:30:31;;;;;;;;;;;;;;;11.55;42.25;100582.28;4908270;28;98810;-69
2023/03/05 00:32:57;;;;;;;;;;;;;;;11.55;42.53;100587.69;4921592;28;98145;-67
2023/03/05 00:35:23;;;;;;;;;;;;;;;11.54;42.31;100580.66;4906248;28;100035;-68
2023/03/05 00:37:49;;;;;;;;;;;;;;;11.53;42.41;100577.16;4940284;28;99372;-69
2023/03/05 00:40:16;;;;;;;;;;;;;;;11.52;42.47;100578.25;4917357;28;97999;-69
2023/03/05 00:42:42;;;;;;;;;;;;;;;11.51;42.42;100576.63;4935788;28;125522;-68
2023/03/05 00:45:09;;;;;;;;;;;;;;;11.51;42.36;100579.34;4920326;28;103929;-67
2023/03/05 00:47:35;;;;;;;;;;;;;;;11.51;42.52;100581.19;4908545;28;102208;-69
2023/03/05 00:50:01;;;;;;;;;;;;;;;11.50;42.33;100568.78;4911763;28;98434;-67
2023/03/05 00:52:27;;;;;;;;;;;;;;;11.49;42.46;100573.38;4940446;28;99982;-67
2023/03/05 00:54:53;;;;;;;;;;;;;;;11.49;42.42;100575.28;4923617;28;98192;-69
2023/03/05 00:57:19;;;;;;;;;;;;;;;11.48;42.61;100569.06;4909978;28;98018;-67
2023/03/05 00:59:46;;;;;;;;;;;;;;;11.48;42.50;100562.88;4910998;28;98266;-67
2023/03/05 01:02:12;;;;;;;;;;;;;;;11.46;42.24;100556.91;4917940;28;98236;-69
2023/03/05 01:04:38;;;;;;;;;;;;;;;11.46;42.49;100552.31;4918411;28;98186;-67
2023/03/05 01:07:04;;;;;;;;;;;;;;;11.46;42.61;100555.03;4921460;28;98161;-69
2023/03/05 01:09:31;;;;;;;;;;;;;;;11.45;42.35;100544.50;4905825;28;98107;-69
2023/03/05 01:11:58;;;;;;;;;;;;;;;11.44;42.11;100545.59;4917575;28;99667;-67
2023/03/05 01:14:27;;;;;;;;;;;;;;;11.45;42.26;100547.22;4923943;28;98804;-67
2023/03/05 01:16:53;;;;;;;;;;;;;;;11.44;42.32;100538.31;4907140;28;98182;-67
2023/03/05 01:19:19;;;;;;;;;;;;;;;11.43;42.44;100533.16;4907663;28;98108;-69
2023/03/05 01:21:45;;;;;;;;;;;;;;;11.42;42.31;100532.34;4906787;28;98355;-67
2023/03/05 01:24:11;;;;;;;;;;;;;;;11.41;42.29;100527.25;4905720;28;99243;-68
2023/03/05 01:26:37;;;;;;;;;;;;;;;11.41;42.68;100525.34;4921008;28;98632;-67
2023/03/05 01:29:03;;;;;;;;;;;;;;;11.41;42.30;100527.25;4933609;28;98221;-69
2023/03/05 01:31:29;;;;;;;;;;;;;;;11.39;42.27;100524.78;4907152;28;98200;-69
2023/03/05 01:33:55;;;;;;;;;;;;;;;11.40;42.33;100517.53;4919950;28;98167;-67
2023/03/05 01:36:23;;;;;;;;;;;;;;;11.38;42.28;100520.47;4917699;28;98104;-69
2023/03/05 01:38:50;;;;;;;;;;;;;;;11.38;42.49;100520.47;4915602;28;98119;-69
2023/03/05 01:41:16;;;;;;;;;;;;;;;11.37;42.25;100521.56;4921676;28;98201;-69
2023/03/05 01:43:43;;;;;;;;;;;;;;;11.37;42.45;100505.38;4923419;28;99448;-67
2023/03/05 01:46:24;;;;;;;;;;;;;;;11.36;42.30;100514.56;4921069;28;98294;-68
2023/03/05 01:48:53;;;;;;;;;;;;;;;11.35;42.26;100509.41;4923548;28;98375;-68
2023/03/05 01:51:20;;;;;;;;;;;;;;;11.34;42.17;100516.72;4937014;28;99375;-67
2023/03/05 01:53:46;;;;;;;;;;;;;;;11.33;42.32;100511.59;4905564;28;98069;-68
2023/03/05 01:56:12;;;;;;;;;;;;;;;11.33;42.38;100514.28;4922038;28;98171;-68
2023/03/05 01:58:38;;;;;;;;;;;;;;;11.33;42.26;100507.00;4908251;28;97918;-69
2023/03/05 02:01:05;;;;;;;;;;;;;;;11.32;42.37;100502.69;4905592;28;98112;-68
2023/03/05 02:03:30;;;;;;;;;;;;;;;11.31;42.45;100501.06;4927481;28;107284;-70
2023/03/05 02:05:57;;;;;;;;;;;;;;;11.30;42.30;100500.25;4936108;28;118297;-68
2023/03/05 02:08:22;;;;;;;;;;;;;;;11.30;42.33;100500.25;4906943;28;98219;-66
2023/03/05 02:10:50;;;;;;;;;;;;;;;11.29;42.47;100487.03;4909002;28;129836;-69
2023/03/05 02:13:20;;;;;;;;;;;;;;;11.28;42.29;100499.72;4923978;28;98148;-68
2023/03/05 02:15:48;;;;;;;;;;;;;;;11.28;42.27;100488.94;4925658;28;98295;-67
2023/03/05 02:18:17;;;;;;;;;;;;;;;11.27;42.15;100489.19;4925350;28;98744;-69
2023/03/05 02:20:49;;;;;;;;;;;;;;;11.27;42.52;100490.00;4907265;28;98268;-68
2023/03/05 02:23:15;;;;;;;;;;;;;;;11.26;42.16;100484.88;4929808;28;98212;-67
2023/03/05 02:25:41;;;;;;;;;;;;;;;11.25;42.24;100483.25;4907057;28;98954;-68
2023/03/05 02:28:17;;;;;;;;;;;;;;;11.25;42.61;100488.66;4907825;28;98048;-69
2023/03/05 02:30:44;;;;;;;;;;;;;;;11.23;42.41;100478.13;4940239;28;98221;-69
2023/03/05 02:33:10;;;;;;;;;;;;;;;11.23;42.28;100474.63;4920441;28;99914;-70
2023/03/05 02:35:36;;;;;;;;;;;;;;;11.23;42.24;100477.31;4925103;28;98069;-69
2023/03/05 02:38:02;;;;;;;;;;;;;;;11.23;42.51;100469.22;4941263;28;98092;-67
2023/03/05 02:40:28;;;;;;;;;;;;;;;11.22;42.63;100464.91;4907318;28;98439;-71
2023/03/05 02:42:54;;;;;;;;;;;;;;;11.20;42.28;100462.50;4923992;28;99805;-67
2023/03/05 02:45:21;;;;;;;;;;;;;;;11.20;42.11;100473.28;4939615;28;98074;-68
2023/03/05 02:47:47;;;;;;;;;;;;;;;11.19;42.34;100462.75;4926451;28;98110;-69
2023/03/05 02:50:13;;;;;;;;;;;;;;;11.18;42.53;100458.44;4929545;28;99352;-67
2023/03/05 02:52:39;;;;;;;;;;;;;;;11.17;42.45;100463.03;4906920;28;99152;-67
2023/03/05 02:55:06;;;;;;;;;;;;;;;11.17;42.35;100459.53;4909477;28;98418;-69
2023/03/05 02:57:32;;;;;;;;;;;;;;;11.16;42.27;100465.97;4912365;28;97955;-69
2023/03/05 02:59:58;;;;;;;;;;;;;;;11.16;42.69;100455.19;4937892;28;99419;-67
2023/03/05 03:02:24;;;;;;;;;;;;;;;11.15;42.64;100454.38;4922126;28;98601;-68
2023/03/05 03:04:50;;;;;;;;;;;;;;;11.13;42.49;100461.97;4921428;28;97979;-67
2023/03/05 03:07:17;;;;;;;;;;;;;;;11.12;42.29;100463.03;4897403;28;100141;-67
2023/03/05 03:09:43;;;;;;;;;;;;;;;11.12;42.14;100467.59;4907780;28;97927;-70
2023/03/05 03:12:10;;;;;;;;;;;;;;;11.11;42.74;100469.50;4921985;28;98213;-68
2023/03/05 03:14:38;;;;;;;;;;;;;;;11.10;42.75;100469.78;4930125;28;98307;-69
2023/03/05 03:17:14;;;;;;;;;;;;;;;11.07;42.33;100458.44;4906178;28;98052;-67
2023/03/05 03:19:41;;;;;;;;;;;;;;;11.08;42.68;100470.03;4908823;28;99751;-68
2023/03/05 03:22:07;;;;;;;;;;;;;;;11.06;42.80;100459.53;4925027;28;98104;-66
2023/03/05 03:24:36;;;;;;;;;;;;;;;11.06;42.23;100464.91;4915672;28;97882;-69
2023/03/05 03:27:02;;;;;;;;;;;;;;;11.06;42.47;100461.41;4910096;28;98063;-69
2023/03/05 03:29:28;;;;;;;;;;;;;;;11.04;42.69;100458.16;4925130;28;100272;-67
2023/03/05 03:31:54;;;;;;;;;;;;;;;11.03;42.48;100451.16;4909240;28;100143;-69
2023/03/05 03:34:20;;;;;;;;;;;;;;;11.02;42.56;100457.63;4905942;28;98438;-67
2023/03/05 03:36:48;;;;;;;;;;;;;;;11.02;42.72;100457.63;4908695;28;98345;-67
2023/03/05 03:39:14;;;;;;;;;;;;;;;11.00;42.72;100449.84;4923569;28;98102;-67
2023/03/05 03:41:42;;;;;;;;;;;;;;;11.00;42.12;100452.53;4906608;28;98911;-67
2023/03/05 03:44:09;;;;;;;;;;;;;;;10.98;42.48;100453.88;4925639;28;97916;-68
2023/03/05 03:46:36;;;;;;;;;;;;;;;10.99;42.33;100453.59;4923864;28;98161;-67
2023/03/05 03:49:02;;;;;;;;;;;;;;;10.97;42.53;100444.97;4908080;28;98456;-68
2023/03/05 03:51:28;;;;;;;;;;;;;;;10.97;42.45;100444.16;4908517;28;98024;-69
2023/03/05 03:53:55;;;;;;;;;;;;;;;10.96;42.56;100443.31;4939011;28;98178;-70
2023/03/05 03:56:21;;;;;;;;;;;;;;;10.94;42.33;100437.41;4922649;28;97913;-67
2023/03/05 03:58:50;;;;;;;;;;;;;;;10.96;42.30;100429.03;4921783;28;129463;-67
2023/03/05 04:01:17;;;;;;;;;;;;;;;10.94;42.35;100426.63;4925956;28;99911;-67
2023/03/05 04:03:43;;;;;;;;;;;;;;;10.92;42.31;100423.38;4907390;28;98653;-67
2023/03/05 04:06:09;;;;;;;;;;;;;;;10.93;42.24;100422.31;4921077;28;98938;-70
2023/03/05 04:08:35;;;;;;;;;;;;;;;10.92;42.58;100417.97;4907618;28;100125;-68
2023/03/05 04:11:01;;;;;;;;;;;;;;;10.92;42.13;100419.88;4920423;28;98067;-69
2023/03/05 04:13:28;;;;;;;;;;;;;;;10.92;42.66;100428.78;4924135;28;98459;-70
2023/03/05 04:15:54;;;;;;;;;;;;;;;10.91;42.46;100421.75;4920885;28;98075;-69
2023/03/05 04:18:20;;;;;;;;;;;;;;;10.91;42.28;100416.38;4899298;28;99594;-70
2023/03/05 04:20:46;;;;;;;;;;;;;;;10.90;42.72;100424.75;4909542;28;98062;-67
2023/03/05 04:23:12;;;;;;;;;;;;;;;10.88;42.66;100416.91;4937346;28;98289;-67
2023/03/05 04:25:38;;;;;;;;;;;;;;;10.89;42.65;100412.34;4907943;28;101397;-67
2023/03/05 04:28:04;;;;;;;;;;;;;;;10.88;42.57;100408.81;4939286;28;99900;-67
2023/03/05 04:30:31;;;;;;;;;;;;;;;10.88;41.92;100406.13;4923606;28;99709;-67
2023/03/05 04:32:57;;;;;;;;;;;;;;;10.88;42.34;100405.31;4922953;28;98772;-66
2023/03/05 04:35:23;;;;;;;;;;;;;;;10.87;42.75;100401.00;4938547;28;97969;-66
2023/03/05 04:37:49;;;;;;;;;;;;;;;10.86;42.11;100402.91;4908827;28;98454;-69
2023/03/05 04:40:15;;;;;;;;;;;;;;;10.86;42.63;100399.41;4922714;28;99070;-67
2023/03/05 04:42:42;;;;;;;;;;;;;;;10.85;42.34;100395.91;4907000;28;98254;-67
2023/03/05 04:45:09;;;;;;;;;;;;;;;10.85;42.72;100387.00;4907569;28;98143;-67
2023/03/05 04:47:35;;;;;;;;;;;;;;;10.84;42.29;100394.25;4911897;28;98213;-68
2023/03/05 04:50:03;;;;;;;;;;;;;;;10.84;42.35;100388.88;4902366;28;98025;-67
2023/03/05 04:52:29;;;;;;;;;;;;;;;10.83;42.28;100387.25;4935736;28;99533;-67
2023/03/05 04:54:55;;;;;;;;;;;;;;;10.83;42.41;100387.25;4923154;28;98060;-67
2023/03/05 04:57:21;;;;;;;;;;;;;;;10.82;42.05;100383.75;4907285;28;98242;-69
2023/03/05 04:59:48;;;;;;;;;;;;;;;10.82;42.13;100380.25;4908052;28;100587;-69
2023/03/05 05:02:14;;;;;;;;;;;;;;;10.80;42.40;100371.63;4907146;28;99052;-69
2023/03/05 05:04:43;;;;;;;;;;;;;;;10.80;42.17;100371.63;4922480;28;98248;-67
2023/03/05 05:07:10;;;;;;;;;;;;;;;10.79;42.20;100376.19;4907291;28;98724;-66
2023/03/05 05:09:37;;;;;;;;;;;;;;;10.80;42.63;100374.31;4911199;28;98077;-69
2023/03/05 05:12:04;;;;;;;;;;;;;;;10.79;42.45;100378.91;4921170;28;98115;-69
2023/03/05 05:14:30;;;;;;;;;;;;;;;10.78;42.37;100374.59;4908930;28;97910;-67
2023/03/05 05:16:56;;;;;;;;;;;;;;;10.78;42.53;100382.69;4919994;28;99861;-69
2023/03/05 05:19:22;;;;;;;;;;;;;;;10.78;42.69;100382.69;4907751;28;97919;-68
2023/03/05 05:21:48;;;;;;;;;;;;;;;10.78;42.56;100382.69;4908059;28;98042;-69
2023/03/05 05:24:15;;;;;;;;;;;;;;;10.78;42.65;100387.25;4918549;28;99471;-68
2023/03/05 05:26:41;;;;;;;;;;;;;;;10.79;42.45;100378.91;4906004;28;98163;-67
2023/03/05 05:29:08;;;;;;;;;;;;;;;10.79;42.34;100383.47;4906252;28;98279;-69
2023/03/05 05:31:35;;;;;;;;;;;;;;;10.79;42.55;100376.19;4920328;28;98673;-67
2023/03/05 05:34:01;;;;;;;;;;;;;;;10.79;42.26;100375.41;4928082;28;98108;-69
2023/03/05 05:36:28;;;;;;;;;;;;;;;10.80;42.21;100377.00;4927248;28;98597;-67
2023/03/05 05:38:54;;;;;;;;;;;;;;;10.78;42.55;100382.69;4924057;28;100059;-67
2023/03/05 05:41:20;;;;;;;;;;;;;;;10.80;42.53;100385.91;4907158;28;100463;-67
2023/03/05 05:43:46;;;;;;;;;;;;;;;10.80;42.32;100388.59;4907061;28;98019;-69
2023/03/05 05:46:17;;;;;;;;;;;;;;;10.82;42.53;100391.03;4924318;28;98519;-67
2023/03/05 05:48:43;;;;;;;;;;;;;;;10.82;42.34;100388.34;4923633;28;98091;-69
2023/03/05 05:51:11;;;;;;;;;;;;;;;10.82;42.07;100380.25;4923384;28;98347;-67
2023/03/05 05:53:38;;;;;;;;;;;;;;;10.85;42.34;100389.69;4925532;28;98520;-69
2023/03/05 05:56:05;;;;;;;;;;;;;;;10.87;42.15;100384.81;4907850;28;99594;-67
2023/03/05 05:58:32;;;;;;;;;;;;;;;10.89;42.41;100388.06;4911531;28;97975;-70
2023/03/05 06:00:58;;;;;;;;;;;;;;;10.90;42.06;100387.78;4911111;28;99060;-68
2023/03/05 06:03:24;;;;;;;;;;;;;;;10.93;42.59;100389.16;4921633;28;98091;-67
2023/03/05 06:05:51;;;;;;;;;;;;;;;10.93;42.14;100389.94;4910362;28;100011;-67
2023/03/05 06:08:18;;;;;;;;;;;;;;;10.95;42.33;100386.97;4936632;28;97923;-67
2023/03/05 06:10:44;;;;;;;;;;;;;;;10.96;42.32;100389.38;4924100;28;99638;-70
2023/03/05 06:13:10;;;;;;;;;;;;;;;10.98;42.28;100381.03;4910586;28;98709;-67
2023/03/05 06:15:37;;;;;;;;;;;;;;;11.01;42.25;100377.81;4922485;28;98373;-67
2023/03/05 06:18:03;;;;;;;;;;;;;;;11.02;42.37;100374.03;4926381;28;97926;-67
2023/03/05 06:20:29;;;;;;;;;;;;;;;11.03;42.01;100383.72;4941451;28;98340;-67
2023/03/05 06:22:55;;;;;;;;;;;;;;;11.06;41.88;100388.59;4939577;28;99311;-67
2023/03/05 06:25:21;;;;;;;;;;;;;;;11.07;42.03;100384.78;4902308;28;98278;-67
2023/03/05 06:27:47;;;;;;;;;;;;;;;11.08;42.40;100378.31;4909226;28;98289;-69
2023/03/05 06:30:13;;;;;;;;;;;;;;;11.10;42.09;100386.97;4943714;28;98004;-68
2023/03/05 06:32:40;;;;;;;;;;;;;;;11.13;42.29;100383.72;4906990;28;98166;-70
2023/03/05 06:35:07;;;;;;;;;;;;;;;11.16;42.38;100391.28;4922196;28;99077;-68
2023/03/05 06:37:33;;;;;;;;;;;;;;;11.18;41.73;100382.91;4906504;28;98686;-67
2023/03/05 06:40:00;;;;;;;;;;;;;;;11.22;41.88;100384.78;4906371;28;98304;-68
2023/03/05 06:42:26;;;;;;;;;;;;;;;11.28;42.27;100383.69;4926104;28;98052;-66
2023/03/05 06:44:52;;;;;;;;;;;;;;;11.34;42.05;100389.06;4918448;28;98258;-66
2023/03/05 06:47:18;;;;;;;;;;;;;;;11.41;42.16;100384.19;4918361;28;98634;-68
2023/03/05 06:49:45;;;;;;;;;;;;;;;11.43;42.07;100384.72;4904273;28;99157;-67
2023/03/05 06:52:11;;;;;;;;;;;;;;;11.47;42.22;100386.59;4921447;28;98280;-66
2023/03/05 06:54:37;;;;;;;;;;;;;;;11.52;42.12;100378.50;4907876;28;98289;-70
2023/03/05 06:57:03;;;;;;;;;;;;;;;11.55;41.76;100380.66;4922659;28;99229;-69
2023/03/05 06:59:30;;;;;;;;;;;;;;;11.58;41.94;100381.97;4907186;28;97964;-67
2023/03/05 07:01:56;;;;;;;;;;;;;;;11.60;41.78;100387.91;4908022;28;98031;-67
2023/03/05 07:04:23;;;;;;;;;;;;;;;11.60;42.14;100382.50;4921138;28;98035;-70
2023/03/05 07:06:49;;;;;;;;;;;;;;;11.61;41.76;100376.03;4919048;28;99396;-69
2023/03/05 07:09:15;;;;;;;;;;;;;;;11.64;42.06;100375.47;4918893;28;98095;-70
2023/03/05 07:11:41;;;;;;;;;;;;;;;11.65;42.07;100379.78;4935919;28;98424;-71
2023/03/05 07:14:07;;;;;;;;;;;;;;;11.65;41.83;100389.78;4900899;28;110777;-68
2023/03/05 07:16:33;;;;;;;;;;;;;;;11.65;42.03;100387.88;4919250;28;99128;-68
2023/03/05 07:19:04;;;;;;;;;;;;;;;11.66;42.02;100375.19;4904790;28;98289;-67
2023/03/05 07:21:31;;;;;;;;;;;;;;;11.64;42.02;100382.78;4905120;28;98679;-70
2023/03/05 07:23:58;;;;;;;;;;;;;;;11.63;41.79;100381.97;4920213;28;98470;-67
2023/03/05 07:26:25;;;;;;;;;;;;;;;11.66;42.12;100377.88;4920474;28;98049;-68
2023/03/05 07:28:51;;;;;;;;;;;;;;;11.68;42.18;100378.44;4918989;28;98225;-69
2023/03/05 07:31:19;;;;;;;;;;;;;;;11.72;41.78;100372.19;4933320;28;97952;-68
2023/03/05 07:33:46;;;;;;;;;;;;;;;11.73;41.90;100375.69;4933702;28;98365;-68
2023/03/05 07:36:12;;;;;;;;;;;;;;;11.70;42.43;100376.25;4906860;28;99676;-67
2023/03/05 07:38:39;;;;;;;;;;;;;;;11.68;42.09;100371.13;4921386;28;98080;-69
2023/03/05 07:41:10;;;;;;;;;;;;;;;11.73;42.13;100367.59;4905293;28;98500;-70
2023/03/05 07:43:36;;;;;;;;;;;;;;;11.86;41.82;100358.13;4920475;28;98268;-69
2023/03/05 07:46:08;;;;;;;;;;;;;;;12.02;41.31;100352.38;4918900;28;98463;-70
2023/03/05 07:48:35;;;;;;;;;;;;;;;12.05;41.66;100353.69;4903668;28;99436;-70
2023/03/05 07:51:06;;;;;;;;;;;;;;;12.02;41.72;100363.16;4921746;28;98193;-68
2023/03/05 07:53:32;;;;;;;;;;;;;;;12.03;41.86;100355.88;4904071;28;98074;-67
2023/03/05 07:55:59;;;;;;;;;;;;;;;12.16;41.58;100357.94;4903000;28;98093;-67
2023/03/05 07:58:25;;;;;;;;;;;;;;;12.18;41.62;100353.06;4919904;28;98551;-70
2023/03/05 08:00:52;;;;;;;;;;;;;;;12.18;41.81;100350.38;4905479;28;98963;-67
2023/03/05 08:03:18;;;;;;;;;;;;;;;12.18;41.80;100349.53;4903631;28;100276;-68
2023/03/05 08:05:44;;;;;;;;;;;;;;;12.21;41.83;100346.28;4936640;28;98136;-67
2023/03/05 08:08:11;;;;;;;;;;;;;;;12.22;41.70;100343.31;4905134;28;98832;-67
2023/03/05 08:10:37;;;;;;;;;;;;;;;12.34;41.68;100340.25;4920569;28;98678;-70
2023/03/05 08:13:04;;;;;;;;;;;;;;;12.29;41.79;100341.09;4921181;28;97983;-67
2023/03/05 08:15:33;;;;;;;;;;;;;;;12.34;41.91;100342.13;4912462;28;98508;-67
2023/03/05 08:17:59;;;;;;;;;;;;;;;12.39;41.73;100336.72;4903601;28;98295;-68
2023/03/05 08:20:25;;;;;;;;;;;;;;;12.43;41.68;100330.44;4943360;28;98353;-69
2023/03/05 08:22:52;;;;;;;;;;;;;;;12.51;41.71;100323.63;4914400;28;99010;-67
2023/03/05 08:25:18;;;;;;;;;;;;;;;12.50;41.67;100322.03;4915008;28;98463;-67
2023/03/05 08:27:45;;;;;;;;;;;;;;;12.44;41.92;100329.34;4904704;28;100197;-69
2023/03/05 08:30:16;;;;;;;;;;;;;;;12.40;41.70;100328.31;4916914;28;98850;-67
2023/03/05 08:32:43;;;;;;;;;;;;;;;12.40;41.95;100322.09;4917072;28;98441;-69
2023/03/05 08:35:09;;;;;;;;;;;;;;;12.38;41.83;100322.38;4900781;28;100669;-68
2023/03/05 08:37:37;;;;;;;;;;;;;;;12.40;41.95;100320.19;4905247;28;98050;-67
2023/03/05 08:40:04;;;;;;;;;;;;;;;12.42;41.87;100312.63;4916127;28;98302;-69
2023/03/05 08:42:30;;;;;;;;;;;;;;;12.40;41.82;100322.91;4925290;28;98264;-67
2023/03/05 08:44:56;;;;;;;;;;;;;;;12.34;42.14;100329.44;4919729;28;98776;-70
2023/03/05 08:47:24;;;;;;;;;;;;;;;12.27;41.87;100332.47;4918946;28;98263;-67
2023/03/05 08:49:54;;;;;;;;;;;;;;;12.19;42.15;100333.06;4932758;28;98658;-67
2023/03/05 08:52:21;;;;;;;;;;;;;;;12.13;42.22;100334.19;4918089;28;100758;-70
2023/03/05 08:54:47;;;;;;;;;;;;;;;12.06;42.11;100335.56;4925695;28;98144;-67
2023/03/05 08:57:13;;;;;;;;;;;;;;;11.97;42.26;100327.25;4899919;28;99357;-70
2023/03/05 08:59:39;;;;;;;;;;;;;;;11.89;42.12;100344.88;4899885;28;98053;-66
2023/03/05 09:02:06;;;;;;;;;;;;;;;11.84;42.32;100342.19;4914074;28;99358;-68
2023/03/05 09:04:32;;;;;;;;;;;;;;;11.79;42.44;100345.72;4905211;28;98527;-69
2023/03/05 09:06:58;;;;;;;;;;;;;;;11.72;42.47;100344.41;4903711;28;98348;-67
2023/03/05 09:09:25;;;;;;;;;;;;;;;11.67;42.34;100344.41;4902728;28;100602;-70
2023/03/05 09:11:51;;;;;;;;;;;;;;;11.62;42.16;100341.72;4927895;28;98585;-66
2023/03/05 09:14:18;;;;;;;;;;;;;;;11.58;42.51;100337.97;4901562;28;98946;-69
2023/03/05 09:16:44;;;;;;;;;;;;;;;11.53;42.25;100331.50;4896650;28;98221;-67
2023/03/05 09:19:11;;;;;;;;;;;;;;;11.51;42.33;100338.25;4927698;28;98244;-68
2023/03/05 09:21:37;;;;;;;;;;;;;;;11.49;42.53;100341.25;4918255;28;98604;-67
2023/03/05 09:24:04;;;;;;;;;;;;;;;11.48;42.16;100325.34;4901811;28;98355;-67
2023/03/05 09:26:30;;;;;;;;;;;;;;;11.46;42.40;100332.88;4898674;28;98087;-69
2023/03/05 09:28:57;;;;;;;;;;;;;;;11.46;42.48;100335.59;4903852;28;98009;-67
2023/03/05 09:31:23;;;;;;;;;;;;;;;11.46;42.20;100335.59;4908784;28;98653;-67
2023/03/05 09:33:50;;;;;;;;;;;;;;;11.45;42.28;100334.78;4899429;28;98285;-69
2023/03/05 09:36:18;;;;;;;;;;;;;;;11.45;42.44;100323.19;4905228;28;98307;-68
2023/03/05 09:38:44;;;;;;;;;;;;;;;11.43;42.25;100320.75;4905375;28;98129;-69
2023/03/05 09:41:20;;;;;;;;;;;;;;;11.44;42.20;100330.47;4902405;28;98602;-67
2023/03/05 09:44:24;;;;;;;;;;;;;;;11.44;42.55;100329.66;4933815;28;98464;-68
2023/03/05 09:47:03;;;;;;;;;;;;;;;11.44;42.17;100326.97;4926629;28;101009;-68
2023/03/05 09:49:43;;;;;;;;;;;;;;;11.44;42.45;100327.78;4902216;28;98210;-66
2023/03/05 09:52:21;;;;;;;;;;;;;;;11.44;42.05;100324.28;4929129;28;98609;-67
2023/03/05 09:54:52;;;;;;;;;;;;;;;11.45;42.20;100323.19;4902950;28;98252;-65
2023/03/05 09:57:31;;;;;;;;;;;;;;;11.45;42.12;100315.09;4920483;28;98139;-66
2023/03/05 10:00:06;;;;;;;;;;;;;;;11.46;42.39;100316.69;4918869;28;98381;-67
2023/03/05 10:02:36;;;;;;;;;;;;;;;11.45;42.17;100315.09;4919454;28;98366;-68
2023/03/05 10:05:32;;;;;;;;;;;;;;;11.45;42.18;100315.88;4902528;28;98085;-65
2023/03/05 10:08:00;;;;;;;;;;;;;;;11.50;42.01;100302.38;4915100;28;98058;-67
2023/03/05 10:10:49;;;;;;;;;;;;;;;11.61;42.36;100308.53;4920331;28;98185;-66
2023/03/05 10:13:33;;;;;;;;;;;;;;;11.85;41.77;100294.38;4920202;28;99561;-65
2023/03/05 10:16:20;;;;;;;;;;;;;;;12.37;41.49;100301.03;4915808;28;98281;-65
2023/03/05 10:19:10;;;;;;;;;;;;;;;13.80;40.08;100291.38;4931967;28;98019;-68
2023/03/05 10:21:48;;;;;;;;;;;;;;;14.87;39.21;100276.88;4924106;28;98427;-67
2023/03/05 10:24:23;;;;;;;;;;;;;;;15.58;38.97;100266.47;4903671;28;99657;-68
2023/03/05 10:26:55;;;;;;;;;;;;;;;16.23;38.59;100264.44;4935876;28;99931;-65
2023/03/05 10:29:39;;;;;;;;;;;;;;;16.47;38.82;100264.13;4936334;28;98538;-65
2023/03/05 10:32:43;;;;;;;;;;;;;;;16.57;39.01;100256.50;4949909;28;98117;-65
2023/03/05 10:35:22;;;;;;;;;;;;;;;16.94;38.95;100251.75;4932604;28;98566;-66
2023/03/05 10:38:27;;;;;;;;;;;;;;;17.00;39.19;100253.19;4906735;28;98043;-64
2023/03/05 10:40:59;;;;;;;;;;;;;;;16.81;39.64;100249.91;4918878;28;98146;-67
2023/03/05 10:43:42;;;;;;;;;;;;;;;16.72;39.90;100252.56;4920945;28;98328;-66
2023/03/05 10:46:19;;;;;;;;;;;;;;;16.65;40.18;100257.66;4926830;28;97919;-65
2023/03/05 10:48:58;;;;;;;;;;;;;;;16.41;40.27;100253.38;4923312;28;98087;-65
2023/03/05 10:51:34;;;;;;;;;;;;;;;16.12;40.84;100245.69;4937245;28;98593;-66
2023/03/05 10:54:24;;;;;;;;;;;;;;;15.91;40.95;100239.91;4919614;28;98251;-67
2023/03/05 10:57:00;;;;;;;;;;;;;;;15.70;40.84;100241.50;4938795;28;99654;-65
2023/03/05 10:59:27;;;;;;;;;;;;;;;15.51;41.18;100232.69;4921324;28;99442;-65
2023/03/05 11:02:07;;;;;;;;;;;;;;;15.33;41.43;100232.53;4920946;28;98642;-66
2023/03/05 11:04:35;;;;;;;;;;;;;;;15.13;41.58;100224.78;4918486;28;98611;-67
2023/03/05 11:07:06;;;;;;;;;;;;;;;14.95;41.58;100230.03;4922470;28;100021;-66
2023/03/05 11:09:32;;;;;;;;;;;;;;;14.81;41.93;100231.13;4924792;28;99868;-66
2023/03/05 11:12:03;;;;;;;;;;;;;;;14.67;41.88;100226.50;4902438;28;99157;-66
2023/03/05 11:14:32;;;;;;;;;;;;;;;14.54;41.98;100223.75;4938806;28;98294;-65
2023/03/05 11:17:01;;;;;;;;;;;;;;;14.38;41.71;100221.31;4906869;28;99758;-66
2023/03/05 11:19:30;;;;;;;;;;;;;;;14.22;41.83;100223.47;4921445;28;99165;-66
2023/03/05 11:22:19;;;;;;;;;;;;;;;14.10;42.11;100217.72;4907006;28;99728;-66
2023/03/05 11:25:04;;;;;;;;;;;;;;;14.00;42.29;100228.75;4908060;28;98230;-65
2023/03/05 11:27:31;;;;;;;;;;;;;;;13.92;41.99;100222.09;4938245;28;98224;-65
2023/03/05 11:29:57;;;;;;;;;;;;;;;13.91;41.75;100220.47;4920029;28;98134;-65
2023/03/05 11:32:25;;;;;;;;;;;;;;;13.90;42.09;100218.84;4926344;28;98387;-65
2023/03/05 11:34:52;;;;;;;;;;;;;;;13.84;41.86;100209.22;4904382;28;98215;-65
2023/03/05 11:37:25;;;;;;;;;;;;;;;13.79;42.14;100205.75;4930013;28;99193;-65
2023/03/05 11:40:18;;;;;;;;;;;;;;;13.72;42.09;100203.44;4934800;28;98900;-66
2023/03/05 11:42:44;;;;;;;;;;;;;;;13.61;42.31;100191.94;4929511;28;99950;-65
2023/03/05 11:45:17;;;;;;;;;;;;;;;13.55;42.19;100195.81;4915664;28;98138;-66
2023/03/05 11:47:48;;;;;;;;;;;;;;;13.49;42.20;100197.00;4907794;28;98329;-66
2023/03/05 11:50:21;;;;;;;;;;;;;;;13.48;41.95;100192.69;4901967;28;98255;-66
2023/03/05 11:52:51;;;;;;;;;;;;;;;13.48;42.26;100198.13;4932954;28;98004;-66
2023/03/05 11:55:40;;;;;;;;;;;;;;;13.46;41.99;100194.88;4926224;28;98061;-67
2023/03/05 11:58:15;;;;;;;;;;;;;;;13.43;41.81;100185.44;4919010;28;99246;-65
2023/03/05 12:00:43;;;;;;;;;;;;;;;13.43;41.91;100190.03;4936601;28;99158;-66
2023/03/05 12:03:15;;;;;;;;;;;;;;;13.49;42.07;100184.28;4893822;28;99216;-65
2023/03/05 12:05:43;;;;;;;;;;;;;;;13.55;41.99;100176.88;4906203;28;98261;-66
2023/03/05 12:08:12;;;;;;;;;;;;;;;13.60;41.66;100170.59;4905346;28;98306;-66
2023/03/05 12:10:38;;;;;;;;;;;;;;;13.69;41.79;100171.53;4917460;28;100206;-66
2023/03/05 12:13:29;;;;;;;;;;;;;;;13.69;41.66;100168.81;4899689;28;99420;-65
2023/03/05 12:16:02;;;;;;;;;;;;;;;13.74;41.83;100166.81;4919411;28;99041;-66
2023/03/05 12:18:33;;;;;;;;;;;;;;;13.87;41.72;100162.56;4917206;28;98705;-67
2023/03/05 12:21:07;;;;;;;;;;;;;;;14.03;41.48;100155.00;4919643;28;99396;-65
2023/03/05 12:24:00;;;;;;;;;;;;;;;13.99;41.55;100162.09;4920546;28;98174;-65
2023/03/05 12:26:51;;;;;;;;;;;;;;;13.96;41.89;100149.94;4943994;28;98042;-65
2023/03/05 12:29:48;;;;;;;;;;;;;;;13.86;41.95;100144.69;4932783;28;99126;-66
2023/03/05 12:32:24;;;;;;;;;;;;;;;13.80;41.72;100131.53;4931320;28;98193;-66
2023/03/05 12:35:05;;;;;;;;;;;;;;;13.65;41.96;100138.00;4932185;28;99640;-66
2023/03/05 12:37:31;;;;;;;;;;;;;;;13.48;42.26;100139.34;4932664;28;98066;-65
2023/03/05 12:39:59;;;;;;;;;;;;;;;13.37;42.32;100145.22;4928173;28;98384;-65
2023/03/05 12:42:28;;;;;;;;;;;;;;;13.34;42.18;100135.75;4928203;28;98131;-65
2023/03/05 12:45:21;;;;;;;;;;;;;;;13.46;42.05;100128.00;4948722;28;98276;-67